Time;durP1;ratioP1;P1;durP2;ratioP2;P2;SDS_P1;SDS_P2;PMS_P1;PMS_P2;Temp;Humidity;BMP_temperature;BMP_pressure;BME280_temperature;BME280_humidity;BME280_pressure;Samples;Min_cycle;Max_cycle;Signal;HPM_P1;HPM_P2
2022/04/06 00:00:49;;;;;;;24.42;7.53;;;8.20;99.90;;;;;;5114096;28;20039;-70
2022/04/06 00:03:15;;;;;;;22.95;7.85;;;8.20;99.90;;;;;;5095705;28;20154;-70
2022/04/06 00:05:41;;;;;;;16.20;7.43;;;8.20;99.90;;;;;;5133572;27;20114;-70
2022/04/06 00:08:07;;;;;;;16.63;7.13;;;8.20;99.90;;;;;;5133963;27;20039;-70
2022/04/06 00:10:33;;;;;;;18.85;7.45;;;8.10;99.90;;;;;;5134082;27;20123;-70
2022/04/06 00:12:59;;;;;;;20.92;7.53;;;8.10;99.90;;;;;;5133334;27;20518;-70
2022/04/06 00:15:25;;;;;;;21.77;7.68;;;8.10;99.90;;;;;;5116117;27;20483;-70
2022/04/06 00:17:51;;;;;;;16.92;6.95;;;8.10;99.90;;;;;;5115743;27;20513;-70
2022/04/06 00:20:17;;;;;;;16.50;7.60;;;8.20;99.90;;;;;;5118653;27;20044;-70
2022/04/06 00:22:43;;;;;;;15.93;7.80;;;8.10;99.90;;;;;;5122295;27;20477;-70
2022/04/06 00:25:09;;;;;;;16.00;7.82;;;8.10;99.90;;;;;;5124450;27;20043;-70
2022/04/06 00:27:35;;;;;;;21.67;9.52;;;8.10;99.90;;;;;;5094636;28;20071;-70
2022/04/06 00:30:01;;;;;;;17.67;8.32;;;8.10;99.90;;;;;;5127500;27;20126;-70
2022/04/06 00:32:27;;;;;;;23.40;8.85;;;8.10;99.90;;;;;;5114954;27;20514;-70
2022/04/06 00:37:37;;;;;;;18.65;8.43;;;8.10;99.90;;;;;;5115264;27;20047;-70
2022/04/06 00:40:03;;;;;;;26.27;10.45;;;8.10;99.90;;;;;;5114471;27;20173;-70
2022/04/06 00:42:29;;;;;;;21.55;8.68;;;8.20;99.90;;;;;;5115755;27;20043;-70
2022/04/06 00:44:55;;;;;;;22.90;10.88;;;8.20;99.90;;;;;;5133529;27;20039;-70
2022/04/06 00:47:20;;;;;;;23.23;9.77;;;8.20;99.90;;;;;;5117724;27;20043;-70
2022/04/06 00:49:46;;;;;;;23.42;10.70;;;8.10;99.90;;;;;;5094341;28;20055;-70
2022/04/06 00:52:12;;;;;;;23.25;10.65;;;8.20;99.90;;;;;;5112913;28;20036;-70
2022/04/06 00:54:38;;;;;;;25.30;10.45;;;8.20;99.90;;;;;;5094104;28;20150;-70
2022/04/06 00:57:04;;;;;;;19.70;10.82;;;8.20;99.90;;;;;;5112714;28;20079;-70
2022/04/06 00:59:31;;;;;;;20.52;11.07;;;8.20;99.90;;;;;;5094635;28;20039;-70
2022/04/06 01:01:57;;;;;;;22.80;10.52;;;8.20;99.90;;;;;;5111894;28;20375;-70
2022/04/06 01:04:24;;;;;;;23.10;10.55;;;8.20;99.90;;;;;;5094532;28;20160;-70
2022/04/06 01:06:51;;;;;;;30.42;11.82;;;8.20;99.90;;;;;;5112968;28;20043;-70
2022/04/06 01:09:18;;;;;;;25.08;10.40;;;8.20;99.90;;;;;;5113852;27;20126;-70
2022/04/06 01:11:51;;;;;;;29.33;11.43;;;8.20;99.90;;;;;;5133476;27;20051;-70
2022/04/06 01:14:19;;;;;;;24.13;10.70;;;8.20;99.90;;;;;;5133001;27;20093;-70
2022/04/06 01:17:08;;;;;;;25.15;11.05;;;8.30;99.90;;;;;;5113685;27;20046;-70
2022/04/06 01:19:43;;;;;;;25.67;9.50;;;8.30;99.90;;;;;;5133147;27;20051;-70
2022/04/06 01:22:11;;;;;;;23.63;9.85;;;8.30;99.90;;;;;;5132088;27;20047;-70
2022/04/06 01:24:37;;;;;;;17.73;8.35;;;8.40;99.90;;;;;;5114620;27;20486;-71
2022/04/06 01:27:03;;;;;;;23.88;7.78;;;8.40;99.90;;;;;;5132901;27;20046;-70
2022/04/06 01:29:29;;;;;;;20.17;8.95;;;8.40;99.90;;;;;;5131891;27;20051;-70
2022/04/06 01:31:55;;;;;;;18.13;7.35;;;8.40;99.90;;;;;;5132885;27;20039;-71
2022/04/06 01:34:20;;;;;;;14.15;7.72;;;8.50;99.90;;;;;;5114641;27;20269;-70
2022/04/06 01:36:46;;;;;;;20.23;7.03;;;8.50;99.90;;;;;;5113740;28;20466;-70
2022/04/06 01:39:12;;;;;;;26.10;9.77;;;8.50;99.90;;;;;;5132465;27;20035;-70
2022/04/06 01:41:38;;;;;;;16.58;7.35;;;8.50;99.90;;;;;;5114334;27;20129;-70
2022/04/06 01:44:05;;;;;;;19.20;6.55;;;8.50;99.90;;;;;;5131683;27;20074;-70
2022/04/06 01:46:32;;;;;;;14.65;6.15;;;8.50;99.90;;;;;;5114666;27;20058;-70
2022/04/06 01:54:27;;;;;;;18.48;5.63;;;8.50;99.90;;;;;;5132612;28;20048;-69
2022/04/06 01:56:52;;;;;;;17.65;6.15;;;8.60;99.90;;;;;;5113363;28;20049;-70
2022/04/06 01:59:18;;;;;;;12.45;5.65;;;8.50;99.90;;;;;;5132373;28;20055;-70
2022/04/06 02:01:46;;;;;;;12.95;5.75;;;9.00;99.90;;;;;;5114512;28;20488;-70
2022/04/06 02:04:15;;;;;;;9.98;4.75;;;8.50;99.90;;;;;;5113285;28;20051;-70
2022/04/06 02:06:41;;;;;;;15.93;5.13;;;8.50;99.90;;;;;;5132495;28;20043;-70
2022/04/06 02:09:06;;;;;;;13.18;4.90;;;8.50;99.90;;;;;;5132314;28;20396;-71
2022/04/06 02:11:32;;;;;;;15.50;5.30;;;8.50;99.90;;;;;;5131759;28;20043;-70
2022/04/06 02:14:00;;;;;;;14.57;5.53;;;8.50;99.90;;;;;;5132361;28;20046;-70
2022/04/06 02:16:27;;;;;;;10.70;5.35;;;6.90;99.90;;;;;;5113845;28;20049;-70
2022/04/06 02:18:53;;;;;;;8.60;4.70;;;8.60;99.90;;;;;;5113388;28;20040;-70
2022/04/06 02:21:18;;;;;;;10.52;4.47;;;8.50;99.90;;;;;;5131989;28;20443;-70
2022/04/06 02:23:44;;;;;;;15.90;5.38;;;8.60;99.90;;;;;;5113897;28;20048;-71
2022/04/06 02:26:09;;;;;;;12.40;4.75;;;8.50;99.90;;;;;;5113165;28;20046;-70
2022/04/06 02:28:35;;;;;;;12.35;4.38;;;8.50;99.90;;;;;;5114201;28;20485;-70
2022/04/06 02:31:00;;;;;;;13.35;4.20;;;8.50;99.90;;;;;;5131770;28;20039;-70
2022/04/06 02:33:26;;;;;;;9.40;4.05;;;8.50;99.90;;;;;;5131601;28;20043;-69
2022/04/06 02:35:52;;;;;;;11.15;3.45;;;8.50;99.90;;;;;;5114004;28;20452;-70
2022/04/06 02:38:17;;;;;;;9.38;3.88;;;8.50;99.90;;;;;;5113846;28;20051;-70
2022/04/06 02:40:43;;;;;;;24.70;5.07;;;8.50;99.90;;;;;;5114841;27;20092;-70
2022/04/06 02:43:08;;;;;;;15.18;4.70;;;8.50;99.90;;;;;;5117728;27;20059;-70
2022/04/06 02:45:34;;;;;;;11.00;3.42;;;8.50;99.90;;;;;;5136064;27;20050;-70
2022/04/06 02:47:59;;;;;;;9.43;3.80;;;8.50;99.90;;;;;;5135013;27;20049;-71
2022/04/06 02:50:25;;;;;;;8.18;3.17;;;8.50;99.90;;;;;;5117311;27;20090;-70
2022/04/06 02:52:51;;;;;;;7.50;2.88;;;8.50;99.90;;;;;;5117453;27;20049;-70
2022/04/06 02:55:16;;;;;;;10.13;3.13;;;8.50;99.90;;;;;;5135065;27;20047;-70
2022/04/06 02:57:43;;;;;;;7.25;3.00;;;8.50;99.90;;;;;;5135950;27;20039;-70
2022/04/06 03:00:09;;;;;;;5.85;2.90;;;8.60;99.90;;;;;;5134977;27;20129;-70
2022/04/06 03:02:35;;;;;;;9.63;3.03;;;8.60;99.90;;;;;;5135330;27;20078;-70
2022/04/06 03:05:01;;;;;;;4.88;2.33;;;8.60;99.90;;;;;;5113895;27;20508;-70
2022/04/06 03:07:26;;;;;;;4.95;2.72;;;8.60;99.90;;;;;;5116580;27;20043;-70
2022/04/06 03:09:52;;;;;;;6.63;2.38;;;8.60;99.90;;;;;;5126585;27;20100;-70
2022/04/06 03:12:18;;;;;;;9.10;2.20;;;8.60;99.90;;;;;;5116743;27;20050;-70
2022/04/06 03:14:43;;;;;;;6.75;2.63;;;8.60;99.90;;;;;;5116189;27;20058;-70
2022/04/06 03:17:09;;;;;;;6.65;2.63;;;8.60;99.90;;;;;;5117054;27;20350;-70
2022/04/06 03:19:35;;;;;;;11.93;3.03;;;8.60;99.90;;;;;;5135156;27;20039;-70
2022/04/06 03:22:01;;;;;;;6.25;2.33;;;8.50;99.90;;;;;;5134221;27;20076;-71
2022/04/06 03:24:27;;;;;;;7.00;2.60;;;8.50;99.90;;;;;;5116988;27;20055;-70
2022/04/06 03:26:53;;;;;;;6.72;2.40;;;8.50;99.90;;;;;;5135368;27;20043;-70
2022/04/06 03:29:18;;;;;;;6.53;2.70;;;8.50;99.90;;;;;;5110381;28;20035;-70
2022/04/06 03:31:44;;;;;;;10.90;2.83;;;8.50;99.90;;;;;;5096318;28;20138;-70
2022/04/06 03:34:09;;;;;;;9.45;4.22;;;8.50;99.90;;;;;;5114217;28;20035;-70
2022/04/06 03:36:35;;;;;;;5.93;2.67;;;8.50;99.90;;;;;;5095332;28;20043;-70
2022/04/06 03:39:00;;;;;;;10.75;3.25;;;8.50;99.90;;;;;;5114032;28;20108;-70
2022/04/06 03:41:26;;;;;;;11.73;3.35;;;8.50;99.90;;;;;;5096420;28;20050;-70
2022/04/06 03:43:52;;;;;;;13.48;4.15;;;8.50;99.90;;;;;;5113634;28;20541;-71
2022/04/06 03:46:18;;;;;;;11.88;4.18;;;8.60;99.90;;;;;;5095743;28;20043;-70
2022/04/06 03:48:44;;;;;;;10.93;4.10;;;8.60;99.90;;;;;;5113856;28;20058;-70
2022/04/06 03:51:10;;;;;;;9.05;4.20;;;8.60;99.90;;;;;;5112838;28;20086;-70
2022/04/06 03:53:36;;;;;;;21.20;4.72;;;8.50;99.90;;;;;;5096150;28;20040;-70
2022/04/06 03:56:02;;;;;;;13.32;4.00;;;8.50;99.90;;;;;;5095418;28;20615;-70
2022/04/06 03:58:29;;;;;;;11.30;4.13;;;8.50;99.90;;;;;;5095075;28;20394;-70
2022/04/06 04:00:55;;;;;;;9.38;4.13;;;8.40;99.90;;;;;;5102535;27;20124;-71
2022/04/06 04:03:20;;;;;;;12.00;4.47;;;8.40;99.90;;;;;;5117419;27;20485;-70
2022/04/06 04:05:46;;;;;;;12.48;4.22;;;8.40;99.90;;;;;;5110971;28;20443;-70
2022/04/06 04:08:11;;;;;;;15.32;5.63;;;8.30;99.90;;;;;;5095578;28;20097;-70
2022/04/06 04:10:37;;;;;;;11.57;4.50;;;8.30;99.90;;;;;;5119276;27;20576;-71
2022/04/06 04:13:02;;;;;;;10.00;5.15;;;8.30;99.90;;;;;;5134186;27;20371;-70
2022/04/06 04:15:28;;;;;;;13.43;5.22;;;8.30;99.90;;;;;;5115916;27;20047;-70
2022/04/06 04:17:53;;;;;;;10.85;5.13;;;8.30;99.90;;;;;;5115306;27;20047;-70
2022/04/06 04:20:19;;;;;;;7.90;5.05;;;8.20;99.90;;;;;;5134384;27;20046;-70
2022/04/06 04:22:46;;;;;;;9.27;5.00;;;8.20;99.90;;;;;;5134228;27;20402;-70
2022/04/06 04:25:12;;;;;;;11.32;4.95;;;8.20;99.90;;;;;;5114894;27;20401;-71
2022/04/06 04:27:39;;;;;;;8.95;5.13;;;8.20;99.90;;;;;;5134063;27;20035;-71
2022/04/06 04:30:06;;;;;;;9.93;5.97;;;8.10;99.90;;;;;;5133666;27;20055;-70
2022/04/06 04:32:31;;;;;;;18.45;5.95;;;8.10;99.90;;;;;;5133059;27;20072;-70
2022/04/06 04:34:58;;;;;;;24.02;6.97;;;8.10;99.90;;;;;;5106928;27;20126;-70
2022/04/06 04:37:24;;;;;;;17.63;7.45;;;8.10;99.90;;;;;;5121771;27;20477;-70
2022/04/06 04:39:50;;;;;;;21.15;7.55;;;8.10;99.90;;;;;;5094156;28;20036;-70
2022/04/06 04:42:15;;;;;;;12.65;6.28;;;8.20;99.90;;;;;;5120749;27;20043;-70
2022/04/06 04:44:41;;;;;;;16.02;6.70;;;8.20;99.90;;;;;;5133620;27;20560;-70
2022/04/06 04:47:07;;;;;;;14.43;7.20;;;8.20;99.90;;;;;;5132498;27;20509;-70
2022/04/06 04:49:32;;;;;;;13.43;5.97;;;8.20;99.90;;;;;;5114723;27;20054;-70
2022/04/06 04:51:58;;;;;;;14.85;6.88;;;8.20;99.90;;;;;;5133419;27;20082;-70
2022/04/06 04:54:24;;;;;;;16.92;6.97;;;8.10;99.90;;;;;;5132776;27;20038;-70
2022/04/06 04:56:51;;;;;;;15.88;6.43;;;8.10;99.90;;;;;;5115077;27;20492;-70
2022/04/06 04:59:17;;;;;;;18.02;7.00;;;8.00;99.90;;;;;;5110823;28;20056;-70
2022/04/06 05:01:46;;;;;;;22.55;7.57;;;8.10;99.90;;;;;;5092413;28;20048;-71
2022/04/06 05:04:11;;;;;;;16.52;6.80;;;8.10;99.90;;;;;;5093186;28;20047;-70
2022/04/06 05:06:38;;;;;;;26.55;7.13;;;8.10;99.90;;;;;;5086242;28;20114;-70
2022/04/06 05:09:03;;;;;;;19.65;6.65;;;8.10;99.90;;;;;;5096976;27;20056;-70
2022/04/06 05:11:29;;;;;;;16.35;6.18;;;8.10;99.90;;;;;;5119662;27;20134;-71
2022/04/06 05:13:54;;;;;;;20.70;7.28;;;8.00;99.90;;;;;;5107432;27;20393;-70
2022/04/06 05:16:20;;;;;;;14.73;5.60;;;8.00;99.90;;;;;;5115008;27;20051;-70
2022/04/06 05:18:45;;;;;;;20.33;7.10;;;8.00;99.90;;;;;;5106472;28;20043;-70
2022/04/06 05:21:11;;;;;;;19.05;5.90;;;8.00;99.90;;;;;;5093186;28;20043;-70
2022/04/06 05:23:37;;;;;;;19.83;7.32;;;8.00;99.90;;;;;;5112556;28;20168;-70
2022/04/06 05:26:03;;;;;;;23.67;7.20;;;8.00;99.90;;;;;;5113674;27;20054;-70
2022/04/06 05:28:28;;;;;;;20.10;6.55;;;7.90;99.90;;;;;;5132243;27;20045;-70
2022/04/06 05:30:54;;;;;;;20.13;6.30;;;7.80;99.90;;;;;;5114145;27;20043;-70
2022/04/06 05:33:20;;;;;;;20.00;7.05;;;7.80;99.90;;;;;;5114217;27;20405;-70
2022/04/06 05:35:45;;;;;;;24.75;7.07;;;7.80;99.90;;;;;;5113698;27;20050;-70
2022/04/06 05:38:11;;;;;;;19.70;6.43;;;7.80;99.90;;;;;;5114240;27;20059;-70
2022/04/06 05:40:37;;;;;;;22.48;6.75;;;7.80;99.90;;;;;;5132847;27;20077;-70
2022/04/06 05:43:06;;;;;;;19.17;7.18;;;7.80;99.90;;;;;;5103126;28;20089;-70
2022/04/06 05:45:31;;;;;;;18.60;5.85;;;7.80;99.90;;;;;;5092193;27;20089;-70
2022/04/06 05:47:57;;;;;;;26.63;7.70;;;7.80;99.90;;;;;;5132213;27;20413;-70
2022/04/06 05:50:22;;;;;;;17.98;6.10;;;7.80;99.90;;;;;;5132009;27;20055;-70
2022/04/06 05:52:48;;;;;;;20.90;7.15;;;7.80;99.90;;;;;;5112345;28;20114;-70
2022/04/06 05:55:14;;;;;;;12.05;5.85;;;7.80;99.90;;;;;;5111614;28;20569;-71
2022/04/06 05:57:40;;;;;;;20.50;6.88;;;7.80;99.90;;;;;;5093064;28;20044;-70
2022/04/06 06:00:09;;;;;;;17.20;6.20;;;7.80;99.90;;;;;;5111520;28;20052;-70
2022/04/06 06:02:35;;;;;;;15.52;6.68;;;7.80;99.90;;;;;;5112218;28;20043;-70
2022/04/06 06:05:01;;;;;;;19.40;6.80;;;7.80;99.90;;;;;;5092567;28;20096;-70
2022/04/06 06:07:30;;;;;;;18.20;6.88;;;7.80;99.90;;;;;;5111805;28;20036;-70
2022/04/06 06:09:56;;;;;;;20.55;7.85;;;7.80;99.90;;;;;;5093278;28;20050;-70
2022/04/06 06:12:22;;;;;;;16.42;7.40;;;7.80;99.90;;;;;;5111085;28;20048;-70
2022/04/06 06:14:48;;;;;;;18.35;7.60;;;7.80;99.90;;;;;;5095741;28;20447;-71
2022/04/06 06:17:13;;;;;;;12.02;7.38;;;7.70;99.90;;;;;;5096744;28;20039;-70
2022/04/06 06:19:39;;;;;;;13.35;6.30;;;7.70;99.90;;;;;;5097963;28;20138;-70
2022/04/06 06:22:04;;;;;;;15.00;6.68;;;7.80;99.90;;;;;;5097295;28;20094;-70
2022/04/06 06:24:30;;;;;;;19.55;7.00;;;7.80;99.90;;;;;;5096366;28;20043;-70
2022/04/06 06:26:56;;;;;;;18.58;7.80;;;7.80;99.90;;;;;;5097193;28;20126;-70
2022/04/06 06:29:22;;;;;;;18.27;7.22;;;7.80;99.90;;;;;;5115609;28;20399;-70
2022/04/06 06:31:48;;;;;;;14.60;6.35;;;7.80;99.90;;;;;;5096388;28;20044;-70
2022/04/06 06:34:14;;;;;;;16.13;6.90;;;7.80;99.90;;;;;;5097175;28;20435;-70
2022/04/06 06:36:39;;;;;;;19.58;7.55;;;7.80;99.90;;;;;;5115649;28;20043;-70
2022/04/06 06:39:05;;;;;;;15.07;6.68;;;7.90;99.90;;;;;;5114605;28;20045;-70
2022/04/06 06:41:31;;;;;;;16.38;7.30;;;7.80;99.90;;;;;;5097619;28;20195;-70
2022/04/06 06:43:58;;;;;;;23.70;6.72;;;7.80;99.90;;;;;;5115090;28;20044;-70
2022/04/06 06:46:24;;;;;;;15.70;5.70;;;7.80;99.90;;;;;;5093847;28;20050;-70
2022/04/06 06:48:51;;;;;;;8.60;5.38;;;7.80;99.90;;;;;;5129055;27;20130;-70
2022/04/06 06:51:17;;;;;;;19.75;6.60;;;7.80;99.90;;;;;;5125205;27;20055;-70
2022/04/06 06:53:43;;;;;;;20.85;5.78;;;7.80;99.90;;;;;;5096282;28;20051;-70
2022/04/06 06:56:09;;;;;;;15.73;5.47;;;7.80;99.90;;;;;;5100724;27;20153;-70
2022/04/06 06:58:35;;;;;;;18.92;5.60;;;7.80;99.90;;;;;;5106477;28;20047;-70
2022/04/06 07:01:01;;;;;;;22.00;6.32;;;7.80;99.90;;;;;;5102251;28;20384;-71
2022/04/06 07:03:26;;;;;;;14.38;6.22;;;7.80;99.90;;;;;;5110425;27;20039;-70
2022/04/06 07:05:52;;;;;;;16.73;6.30;;;7.80;99.90;;;;;;5127092;27;20082;-70
2022/04/06 07:08:18;;;;;;;17.45;6.18;;;7.80;99.90;;;;;;5116384;27;20054;-71
2022/04/06 07:10:45;;;;;;;13.27;5.00;;;7.80;99.90;;;;;;5116613;28;20060;-70
2022/04/06 07:13:16;;;;;;;11.00;6.07;;;7.80;99.90;;;;;;5114546;28;20040;-70
2022/04/06 07:15:42;;;;;;;17.85;5.70;;;7.70;99.90;;;;;;5112445;28;20052;-71
2022/04/06 07:18:09;;;;;;;20.30;5.45;;;7.80;99.90;;;;;;5111210;27;20089;-71
2022/04/06 07:20:38;;;;;;;17.38;5.47;;;7.70;99.90;;;;;;5114182;28;20115;-70
2022/04/06 07:23:04;;;;;;;14.93;4.97;;;7.80;99.90;;;;;;5112425;27;20054;-71
2022/04/06 07:25:30;;;;;;;17.10;6.25;;;7.70;99.90;;;;;;5114811;28;20058;-70
2022/04/06 07:27:56;;;;;;;12.95;5.65;;;7.80;99.90;;;;;;5133575;27;20039;-71
2022/04/06 07:30:22;;;;;;;20.40;6.07;;;7.80;99.90;;;;;;5134796;27;20091;-70
2022/04/06 07:32:47;;;;;;;13.93;5.00;;;7.80;99.90;;;;;;5116104;27;20047;-70
2022/04/06 07:35:14;;;;;;;10.60;4.90;;;7.80;99.90;;;;;;5118965;27;20054;-70
2022/04/06 07:37:41;;;;;;;13.45;5.78;;;7.80;99.90;;;;;;5092014;28;20053;-72
2022/04/06 07:40:09;;;;;;;16.60;5.45;;;7.80;99.90;;;;;;5102206;28;20048;-67
2022/04/06 07:42:36;;;;;;;16.65;5.45;;;7.80;99.90;;;;;;5088122;27;20091;-67
2022/04/06 07:45:07;;;;;;;19.25;5.40;;;7.80;99.90;;;;;;5116315;27;20054;-70
2022/04/06 07:47:33;;;;;;;14.18;4.28;;;7.90;99.90;;;;;;5135119;27;20053;-67
2022/04/06 07:50:00;;;;;;;19.45;5.40;;;7.90;99.90;;;;;;5133452;27;20216;-70
2022/04/06 07:52:27;;;;;;;20.67;6.00;;;7.90;99.90;;;;;;5111394;28;20054;-71
2022/04/06 07:54:52;;;;;;;17.17;6.05;;;7.90;99.90;;;;;;5126515;27;20069;-71
2022/04/06 07:57:25;;;;;;;17.00;5.57;;;7.90;99.90;;;;;;5101494;28;20047;-70
2022/04/06 07:59:51;;;;;;;;;;;8.00;99.90;;;;;;5126643;27;20129;-71
2022/04/06 08:02:16;;;;;;;13.10;5.22;;;8.00;99.90;;;;;;5118000;27;20011;-70
2022/04/06 08:04:45;;;;;;;15.70;4.85;;;8.00;99.90;;;;;;5109705;27;20074;-70
2022/04/06 08:07:10;;;;;;;17.38;5.45;;;8.00;99.90;;;;;;5124352;27;20035;-71
2022/04/06 08:09:36;;;;;;;12.73;5.32;;;8.00;99.90;;;;;;5133598;27;20039;-72
2022/04/06 08:12:02;;;;;;;18.88;4.30;;;8.00;99.90;;;;;;5097025;28;20051;-70
2022/04/06 08:14:31;;;;;;;14.13;4.43;;;8.00;99.90;;;;;;5118077;27;20051;-69
2022/04/06 08:16:57;;;;;;;14.85;4.50;;;8.00;99.90;;;;;;5112589;28;20650;-71
2022/04/06 08:19:23;;;;;;;15.63;4.80;;;8.10;99.90;;;;;;5092234;27;20054;-69
2022/04/06 08:21:49;;;;;;;14.30;5.38;;;8.10;99.90;;;;;;5096643;28;20464;-68
2022/04/06 08:24:16;;;;;;;7.72;4.13;;;8.10;99.90;;;;;;5091154;27;20040;-70
2022/04/06 08:26:41;;;;;;;19.35;5.00;;;8.20;99.90;;;;;;5081056;28;20047;-70
2022/04/06 08:29:07;;;;;;;17.48;5.07;;;8.20;99.90;;;;;;5089289;28;20092;-70
2022/04/06 08:31:33;;;;;;;13.25;4.35;;;8.20;99.90;;;;;;5081044;28;20040;-70
2022/04/06 08:34:03;;;;;;;17.20;6.05;;;8.20;99.90;;;;;;5079804;28;20431;-70
2022/04/06 08:36:29;;;;;;;13.77;4.63;;;8.10;99.90;;;;;;5092719;28;20044;-70
2022/04/06 08:38:55;;;;;;;12.32;4.60;;;8.20;99.90;;;;;;5089102;28;20048;-70
2022/04/06 08:41:26;;;;;;;14.45;4.70;;;8.20;99.90;;;;;;5099555;28;20403;-70
2022/04/06 08:43:52;;;;;;;18.75;5.03;;;8.20;99.90;;;;;;5084186;28;20056;-70
2022/04/06 08:46:19;;;;;;;14.23;4.35;;;8.20;99.90;;;;;;5079952;28;20077;-69
2022/04/06 08:48:48;;;;;;;10.18;4.70;;;8.30;99.90;;;;;;5105213;28;20055;-69
2022/04/06 08:51:15;;;;;;;17.63;3.97;;;8.40;99.90;;;;;;5079547;28;20410;-70
2022/04/06 08:53:42;;;;;;;20.63;4.65;;;8.50;99.90;;;;;;5096203;28;20065;-71
2022/04/06 08:56:08;;;;;;;17.52;5.13;;;8.50;99.90;;;;;;5073554;28;20121;-71
2022/04/06 08:58:34;;;;;;;13.63;4.85;;;8.60;99.90;;;;;;5078497;28;20130;-71
2022/04/06 09:01:00;;;;;;;11.00;4.05;;;8.60;99.90;;;;;;5090770;28;20047;-71
2022/04/06 09:03:26;;;;;;;15.02;4.18;;;8.60;99.90;;;;;;5091952;28;20054;-71
2022/04/06 09:06:18;;;;;;;14.93;3.90;;;8.60;99.90;;;;;;5084857;28;20513;-71
2022/04/06 09:08:47;;;;;;;18.23;4.85;;;8.70;99.90;;;;;;5096279;27;20052;-71
2022/04/06 09:11:16;;;;;;;15.73;3.75;;;8.70;99.90;;;;;;5081835;27;20568;-71
2022/04/06 09:13:44;;;;;;;10.82;3.17;;;8.70;99.90;;;;;;5105359;27;20055;-71
2022/04/06 09:16:11;;;;;;;12.75;3.72;;;8.80;99.90;;;;;;5103557;28;20043;-72
2022/04/06 09:18:46;;;;;;;13.85;3.90;;;8.80;99.90;;;;;;5107819;27;20039;-71
2022/04/06 09:21:16;;;;;;;12.20;3.53;;;8.90;99.90;;;;;;5092549;27;20047;-71
2022/04/06 09:23:48;;;;;;;9.35;4.13;;;9.00;99.90;;;;;;5112704;27;20422;-71
2022/04/06 09:26:16;;;;;;;13.60;4.03;;;9.20;99.90;;;;;;5098860;27;20130;-71
2022/04/06 09:28:45;;;;;;;11.50;3.67;;;9.30;99.90;;;;;;5107136;27;20062;-71
2022/04/06 09:31:15;;;;;;;18.42;4.10;;;9.30;99.90;;;;;;5091411;28;20083;-72
2022/04/06 09:33:44;;;;;;;14.57;4.50;;;9.40;99.90;;;;;;5107397;28;20043;-71
2022/04/06 09:36:19;;;;;;;13.23;3.70;;;9.50;99.90;;;;;;5090378;28;20052;-72
2022/04/06 09:38:50;;;;;;;10.00;3.58;;;9.60;99.90;;;;;;5073369;28;20040;-72
2022/04/06 09:41:17;;;;;;;8.43;3.78;;;9.70;99.90;;;;;;5071816;28;20036;-71
2022/04/06 09:43:45;;;;;;;14.13;4.50;;;9.70;99.90;;;;;;5095444;28;20079;-70
2022/04/06 09:49:18;;;;;;;14.07;3.42;;;9.80;99.90;;;;;;5070462;28;20071;-70
2022/04/06 09:51:50;;;;;;;14.00;4.55;;;9.80;99.90;;;;;;5093386;28;20086;-71
2022/04/06 09:54:16;;;;;;;9.65;3.80;;;9.70;99.90;;;;;;5100739;28;20036;-71
2022/04/06 09:56:42;;;;;;;14.55;4.35;;;9.60;99.90;;;;;;5100844;28;20395;-72
2022/04/06 09:59:09;;;;;;;14.90;4.80;;;9.70;99.90;;;;;;5093292;28;20127;-71
2022/04/06 10:01:45;;;;;;;13.20;4.05;;;9.70;99.90;;;;;;5093083;28;20054;-71
2022/04/06 10:04:12;;;;;;;19.48;4.07;;;9.70;99.90;;;;;;5081049;28;20051;-71
2022/04/06 10:06:42;;;;;;;16.15;4.78;;;9.70;99.90;;;;;;5094653;28;20138;-71
2022/04/06 10:09:15;;;;;;;15.18;4.10;;;9.60;99.90;;;;;;5071350;28;20402;-71
2022/04/06 10:11:42;;;;;;;6.75;3.95;;;9.70;99.90;;;;;;5108037;28;20050;-66
2022/04/06 10:14:09;;;;;;;13.63;4.47;;;9.60;99.90;;;;;;5091138;28;20044;-68
2022/04/06 10:16:36;;;;;;;12.57;4.53;;;9.70;99.90;;;;;;5094589;28;20048;-69
2022/04/06 10:19:03;;;;;;;13.75;4.60;;;9.70;99.90;;;;;;5074666;28;20127;-69
2022/04/06 10:21:55;;;;;;;12.88;4.57;;;9.70;99.90;;;;;;5107614;28;20050;-69
2022/04/06 10:24:26;;;;;;;9.77;4.45;;;9.70;99.90;;;;;;5085910;28;20115;-70
2022/04/06 10:27:01;;;;;;;19.05;4.95;;;9.70;99.90;;;;;;5103501;28;20177;-70
2022/04/06 10:29:26;;;;;;;15.80;4.28;;;9.70;99.90;;;;;;5101907;28;20050;-70
2022/04/06 10:31:55;;;;;;;21.38;5.78;;;9.70;99.90;;;;;;5090528;28;20044;-70
2022/04/06 10:34:28;;;;;;;9.80;3.90;;;9.70;99.90;;;;;;5099257;28;20046;-70
2022/04/06 10:37:15;;;;;;;10.77;4.65;;;9.70;99.90;;;;;;5105211;28;20044;-70
2022/04/06 10:39:50;;;;;;;20.35;5.85;;;9.70;99.90;;;;;;5098357;28;20048;-70
2022/04/06 10:42:28;;;;;;;13.13;4.63;;;9.70;99.90;;;;;;5072830;28;20036;-70
2022/04/06 10:44:55;;;;;;;23.10;6.45;;;9.60;99.90;;;;;;5080803;28;20531;-71
2022/04/06 10:47:26;;;;;;;19.30;5.45;;;9.60;99.90;;;;;;5087705;28;20501;-70
2022/04/06 10:50:10;;;;;;;21.67;5.43;;;9.60;99.90;;;;;;5082014;28;20052;-70
2022/04/06 10:52:36;;;;;;;23.42;6.82;;;9.50;99.90;;;;;;5080287;28;20044;-70
2022/04/06 10:55:23;;;;;;;39.55;6.47;;;9.50;99.90;;;;;;5089732;28;20036;-71
2022/04/06 10:58:01;;;;;;;12.95;4.30;;;9.40;99.90;;;;;;5073303;28;20044;-71
2022/04/06 11:00:28;;;;;;;17.88;6.18;;;9.40;99.90;;;;;;5080877;28;20055;-71
2022/04/06 11:02:57;;;;;;;19.65;6.18;;;9.40;99.90;;;;;;5089765;28;20048;-70
2022/04/06 11:05:45;;;;;;;17.92;6.38;;;9.60;99.90;;;;;;5088616;28;20551;-70
2022/04/06 11:11:58;;;;;;;17.40;5.32;;;9.60;99.90;;;;;;5114798;28;20047;-70
2022/04/06 11:14:24;;;;;;;20.13;5.25;;;9.40;99.90;;;;;;5112977;28;20449;-70
2022/04/06 11:16:49;;;;;;;19.10;4.93;;;9.60;99.90;;;;;;5095686;28;20121;-70
2022/04/06 11:19:16;;;;;;;21.63;5.57;;;9.60;99.90;;;;;;5096119;28;20137;-70
2022/04/06 11:21:50;;;;;;;15.77;5.63;;;9.70;99.90;;;;;;5095634;28;20060;-69
2022/04/06 11:24:27;;;;;;;26.45;6.07;;;9.80;99.90;;;;;;5096382;28;20062;-70
2022/04/06 11:26:53;;;;;;;25.75;5.97;;;10.00;99.90;;;;;;5114015;28;20043;-70
2022/04/06 11:29:24;;;;;;;17.60;6.00;;;10.20;99.90;;;;;;5114254;28;20115;-70
2022/04/06 11:31:57;;;;;;;25.95;6.25;;;10.50;99.90;;;;;;5114840;28;20063;-70
2022/04/06 11:34:37;;;;;;;17.17;4.38;;;10.70;99.90;;;;;;5095636;28;20447;-70
2022/04/06 11:37:07;;;;;;;16.30;4.25;;;11.00;99.90;;;;;;5114337;28;20048;-70
2022/04/06 11:39:36;;;;;;;14.13;4.05;;;11.20;99.90;;;;;;5096440;28;20084;-70
2022/04/06 11:42:06;;;;;;;15.27;4.32;;;11.30;99.90;;;;;;5113560;28;20090;-69
2022/04/06 11:44:33;;;;;;;16.25;4.25;;;11.30;99.90;;;;;;5114453;28;20055;-70
2022/04/06 11:46:59;;;;;;;13.27;4.10;;;11.40;99.90;;;;;;5095708;28;20139;-70
2022/04/06 11:49:29;;;;;;;15.45;4.50;;;11.40;99.90;;;;;;5094808;28;20134;-70
2022/04/06 11:51:56;;;;;;;10.80;3.63;;;11.40;99.90;;;;;;5095697;28;20055;-70
2022/04/06 11:54:22;;;;;;;19.02;3.88;;;11.50;99.90;;;;;;5095665;28;20126;-70
2022/04/06 11:56:52;;;;;;;15.57;3.70;;;11.50;99.90;;;;;;5113614;28;20054;-70
2022/04/06 11:59:22;;;;;;;12.02;2.92;;;11.60;99.90;;;;;;5113830;28;20450;-70
2022/04/06 12:01:50;;;;;;;13.45;3.67;;;11.80;99.90;;;;;;5113491;28;20043;-70
2022/04/06 12:04:22;;;;;;;10.15;3.25;;;11.80;99.90;;;;;;5095565;28;20044;-70
2022/04/06 12:06:49;;;;;;;14.25;3.55;;;11.90;99.90;;;;;;5113869;28;20086;-70
2022/04/06 12:09:15;;;;;;;10.32;3.80;;;11.90;99.90;;;;;;5094777;28;20052;-70
2022/04/06 12:11:41;;;;;;;13.70;3.58;;;11.90;99.90;;;;;;5095164;28;20039;-70
2022/04/06 12:14:11;;;;;;;10.35;3.30;;;12.00;99.90;;;;;;5095240;28;20116;-70
2022/04/06 12:16:38;;;;;;;9.40;3.60;;;12.00;99.90;;;;;;5094488;28;20494;-70
2022/04/06 12:19:08;;;;;;;12.65;3.25;;;12.10;99.90;;;;;;5095038;28;20088;-70
2022/04/06 12:21:43;;;;;;;9.18;3.08;;;12.20;99.90;;;;;;5095305;28;20055;-70
2022/04/06 12:24:09;;;;;;;10.98;2.85;;;12.20;99.90;;;;;;5112494;28;20039;-70
2022/04/06 12:26:50;;;;;;;14.25;3.65;;;12.20;99.90;;;;;;5113660;28;20044;-70
2022/04/06 12:29:16;;;;;;;15.70;3.78;;;12.20;99.90;;;;;;5113258;28;20203;-70
2022/04/06 12:31:47;;;;;;;14.27;4.15;;;12.10;99.90;;;;;;5094481;28;20617;-70
2022/04/06 12:34:35;;;;;;;10.55;2.90;;;11.80;99.90;;;;;;5113352;28;20044;-70
2022/04/06 12:37:29;;;;;;;12.15;3.20;;;11.80;99.90;;;;;;5112479;28;20095;-70
2022/04/06 12:39:57;;;;;;;14.48;3.15;;;11.60;99.90;;;;;;5095117;28;20523;-70
2022/04/06 12:42:34;;;;;;;10.98;3.10;;;11.50;99.90;;;;;;5113474;28;20150;-70
2022/04/06 12:45:06;;;;;;;12.38;4.13;;;11.60;99.90;;;;;;5112397;28;20051;-69
2022/04/06 12:47:31;;;;;;;15.05;3.25;;;11.80;99.90;;;;;;5095056;28;20123;-70
2022/04/06 12:50:10;;;;;;;10.32;3.10;;;11.80;99.90;;;;;;5094506;28;20132;-70
2022/04/06 12:52:37;;;;;;;10.35;3.47;;;11.60;99.90;;;;;;5112326;28;20040;-70
2022/04/06 12:55:06;;;;;;;12.95;3.40;;;11.50;99.90;;;;;;5112935;28;20104;-70
2022/04/06 12:57:34;;;;;;;13.57;3.53;;;11.60;99.90;;;;;;5094614;28;20048;-70
2022/04/06 13:00:00;;;;;;;10.55;3.60;;;11.60;99.90;;;;;;5093710;28;20058;-70
2022/04/06 13:02:32;;;;;;;11.90;3.78;;;11.70;99.90;;;;;;5112946;28;20053;-70